sensor_id;sensor_type;location;lat;lon;timestamp;pressure;altitude;pressure_sealevel;temperature;humidity
80693;BME280;70055;39.436;-77.514;2023-08-17T00:01:15;99272.68;;;24.27;43.09
80693;BME280;70055;39.436;-77.514;2023-08-17T00:03:42;99273.24;;;24.22;43.51
80693;BME280;70055;39.436;-77.514;2023-08-17T00:06:10;99272.74;;;23.87;43.42
80693;BME280;70055;39.436;-77.514;2023-08-17T00:08:40;99272.80;;;24.16;42.74
80693;BME280;70055;39.436;-77.514;2023-08-17T00:11:07;99276.22;;;24.05;42.30
80693;BME280;70055;39.436;-77.514;2023-08-17T00:13:35;99278.36;;;24.21;42.33
80693;BME280;70055;39.436;-77.514;2023-08-17T00:16:03;99278.56;;;24.17;42.06
80693;BME280;70055;39.436;-77.514;2023-08-17T00:18:32;99283.40;;;24.65;41.57
80693;BME280;70055;39.436;-77.514;2023-08-17T00:21:00;99291.11;;;23.94;42.42
80693;BME280;70055;39.436;-77.514;2023-08-17T00:23:29;99295.29;;;24.35;42.56
80693;BME280;70055;39.436;-77.514;2023-08-17T00:25:57;99295.86;;;23.63;43.67
80693;BME280;70055;39.436;-77.514;2023-08-17T00:28:25;99292.68;;;23.78;43.21
80693;BME280;70055;39.436;-77.514;2023-08-17T00:30:53;99296.88;;;23.36;44.60
80693;BME280;70055;39.436;-77.514;2023-08-17T00:33:21;99299.97;;;23.71;44.44
80693;BME280;70055;39.436;-77.514;2023-08-17T00:35:49;99302.85;;;23.16;44.61
80693;BME280;70055;39.436;-77.514;2023-08-17T00:38:17;99304.39;;;22.92;45.24
80693;BME280;70055;39.436;-77.514;2023-08-17T00:40:45;99304.70;;;22.88;45.79
80693;BME280;70055;39.436;-77.514;2023-08-17T00:43:14;99307.08;;;22.80;45.41
80693;BME280;70055;39.436;-77.514;2023-08-17T00:45:42;99310.83;;;21.93;47.86
80693;BME280;70055;39.436;-77.514;2023-08-17T00:48:13;99323.50;;;20.49;50.76
80693;BME280;70055;39.436;-77.514;2023-08-17T00:50:42;99319.05;;;21.50;49.39
80693;BME280;70055;39.436;-77.514;2023-08-17T00:53:11;99318.74;;;20.78;50.03
80693;BME280;70055;39.436;-77.514;2023-08-17T00:55:39;99321.56;;;20.98;49.66
80693;BME280;70055;39.436;-77.514;2023-08-17T00:58:08;99328.39;;;19.86;51.48
80693;BME280;70055;39.436;-77.514;2023-08-17T01:00:37;99335.48;;;18.69;54.95
80693;BME280;70055;39.436;-77.514;2023-08-17T01:03:05;99333.38;;;19.69;53.96
80693;BME280;70055;39.436;-77.514;2023-08-17T01:05:34;99334.68;;;20.26;52.03
80693;BME280;70055;39.436;-77.514;2023-08-17T01:08:02;99332.46;;;20.77;51.62
80693;BME280;70055;39.436;-77.514;2023-08-17T01:10:37;99335.48;;;20.66;51.31
80693;BME280;70055;39.436;-77.514;2023-08-17T01:13:15;99339.05;;;20.21;52.05
80693;BME280;70055;39.436;-77.514;2023-08-17T01:15:50;99342.69;;;19.58;53.31
80693;BME280;70055;39.436;-77.514;2023-08-17T01:18:25;99348.56;;;19.96;52.33
80693;BME280;70055;39.436;-77.514;2023-08-17T01:21:00;99349.77;;;20.42;53.02
80693;BME280;70055;39.436;-77.514;2023-08-17T01:23:29;99351.54;;;21.73;49.76
80693;BME280;70055;39.436;-77.514;2023-08-17T01:25:58;99354.11;;;21.44;50.43
80693;BME280;70055;39.436;-77.514;2023-08-17T01:28:26;99356.68;;;21.56;50.08
80693;BME280;70055;39.436;-77.514;2023-08-17T01:31:00;99356.27;;;21.58;50.24
80693;BME280;70055;39.436;-77.514;2023-08-17T01:33:33;99355.44;;;21.29;50.46
80693;BME280;70055;39.436;-77.514;2023-08-17T01:36:10;99356.08;;;21.65;49.98
80693;BME280;70055;39.436;-77.514;2023-08-17T01:38:41;99358.84;;;21.47;49.23
80693;BME280;70055;39.436;-77.514;2023-08-17T01:41:11;99358.52;;;21.71;49.24
80693;BME280;70055;39.436;-77.514;2023-08-17T01:43:42;99360.47;;;21.95;49.15
80693;BME280;70055;39.436;-77.514;2023-08-17T01:46:13;99359.61;;;21.63;49.03
80693;BME280;70055;39.436;-77.514;2023-08-17T01:48:41;99359.33;;;21.63;48.92
80693;BME280;70055;39.436;-77.514;2023-08-17T01:51:10;99359.09;;;21.56;48.85
80693;BME280;70055;39.436;-77.514;2023-08-17T01:53:39;99361.47;;;21.28;49.92
80693;BME280;70055;39.436;-77.514;2023-08-17T01:56:07;99360.67;;;21.07;49.84
80693;BME280;70055;39.436;-77.514;2023-08-17T01:58:34;99354.30;;;21.53;49.62
80693;BME280;70055;39.436;-77.514;2023-08-17T02:01:02;99359.91;;;21.29;49.66
80693;BME280;70055;39.436;-77.514;2023-08-17T02:03:31;99357.57;;;21.32;49.61
80693;BME280;70055;39.436;-77.514;2023-08-17T02:06:00;99355.06;;;21.42;49.47
80693;BME280;70055;39.436;-77.514;2023-08-17T02:08:29;99352.06;;;22.14;48.59
80693;BME280;70055;39.436;-77.514;2023-08-17T02:10:59;99351.18;;;21.45;49.34
80693;BME280;70055;39.436;-77.514;2023-08-17T02:13:27;99356.63;;;21.26;50.03
80693;BME280;70055;39.436;-77.514;2023-08-17T02:15:55;99354.34;;;20.85;50.02
80693;BME280;70055;39.436;-77.514;2023-08-17T02:18:24;99358.59;;;20.41;51.65
80693;BME280;70055;39.436;-77.514;2023-08-17T02:20:53;99356.47;;;20.74;49.86
80693;BME280;70055;39.436;-77.514;2023-08-17T02:23:21;99357.01;;;19.85;53.19
80693;BME280;70055;39.436;-77.514;2023-08-17T02:25:50;99354.61;;;19.60;53.94
80693;BME280;70055;39.436;-77.514;2023-08-17T02:28:18;99356.56;;;20.25;52.11
80693;BME280;70055;39.436;-77.514;2023-08-17T02:30:48;99349.54;;;20.58;51.21
80693;BME280;70055;39.436;-77.514;2023-08-17T02:33:16;99345.99;;;20.63;50.86
80693;BME280;70055;39.436;-77.514;2023-08-17T02:35:48;99343.65;;;20.43;50.81
80693;BME280;70055;39.436;-77.514;2023-08-17T02:38:17;99345.49;;;20.46;51.33
80693;BME280;70055;39.436;-77.514;2023-08-17T02:40:44;99339.11;;;19.35;54.12
80693;BME280;70055;39.436;-77.514;2023-08-17T02:43:12;99339.69;;;19.01;55.68
80693;BME280;70055;39.436;-77.514;2023-08-17T02:45:41;99335.35;;;20.22;52.47
80693;BME280;70055;39.436;-77.514;2023-08-17T02:48:09;99336.67;;;20.27;52.05
80693;BME280;70055;39.436;-77.514;2023-08-17T02:50:37;99338.70;;;20.40;51.99
80693;BME280;70055;39.436;-77.514;2023-08-17T02:53:06;99338.71;;;20.25;51.64
80693;BME280;70055;39.436;-77.514;2023-08-17T02:55:34;99333.91;;;20.20;51.48
80693;BME280;70055;39.436;-77.514;2023-08-17T02:58:03;99330.07;;;20.17;52.29
80693;BME280;70055;39.436;-77.514;2023-08-17T03:00:32;99327.65;;;20.66;51.50
80693;BME280;70055;39.436;-77.514;2023-08-17T03:03:00;99323.64;;;20.26;51.94
80693;BME280;70055;39.436;-77.514;2023-08-17T03:05:28;99315.97;;;19.62;53.71
80693;BME280;70055;39.436;-77.514;2023-08-17T03:07:59;99319.54;;;19.83;53.85
80693;BME280;70055;39.436;-77.514;2023-08-17T03:10:27;99322.93;;;19.79;53.45
80693;BME280;70055;39.436;-77.514;2023-08-17T03:12:55;99325.52;;;19.82;53.54
80693;BME280;70055;39.436;-77.514;2023-08-17T03:15:23;99326.85;;;20.11;52.29
80693;BME280;70055;39.436;-77.514;2023-08-17T03:17:50;99325.34;;;19.86;52.63
80693;BME280;70055;39.436;-77.514;2023-08-17T03:20:18;99319.14;;;19.70;53.78
80693;BME280;70055;39.436;-77.514;2023-08-17T03:22:47;99321.45;;;18.85;55.71
80693;BME280;70055;39.436;-77.514;2023-08-17T03:25:14;99323.33;;;20.03;52.82
80693;BME280;70055;39.436;-77.514;2023-08-17T03:27:42;99319.87;;;19.38;54.74
80693;BME280;70055;39.436;-77.514;2023-08-17T03:30:11;99314.46;;;19.76;53.29
80693;BME280;70055;39.436;-77.514;2023-08-17T03:32:40;99313.18;;;19.94;53.46
80693;BME280;70055;39.436;-77.514;2023-08-17T03:35:08;99314.29;;;20.09;52.34
80693;BME280;70055;39.436;-77.514;2023-08-17T03:37:37;99313.61;;;20.34;52.21
80693;BME280;70055;39.436;-77.514;2023-08-17T03:40:07;99310.85;;;20.87;51.15
80693;BME280;70055;39.436;-77.514;2023-08-17T03:42:35;99313.97;;;21.14;50.70
80693;BME280;70055;39.436;-77.514;2023-08-17T03:45:03;99310.93;;;21.60;49.74
80693;BME280;70055;39.436;-77.514;2023-08-17T03:47:32;99315.74;;;20.24;51.91
80693;BME280;70055;39.436;-77.514;2023-08-17T03:49:59;99318.22;;;20.30;52.28
80693;BME280;70055;39.436;-77.514;2023-08-17T03:52:27;99316.37;;;20.64;51.62
80693;BME280;70055;39.436;-77.514;2023-08-17T03:54:55;99314.88;;;21.05;50.88
80693;BME280;70055;39.436;-77.514;2023-08-17T03:57:23;99318.03;;;20.88;52.29
80693;BME280;70055;39.436;-77.514;2023-08-17T03:59:51;99322.09;;;19.43;54.31
80693;BME280;70055;39.436;-77.514;2023-08-17T04:02:19;99326.29;;;20.69;52.89
80693;BME280;70055;39.436;-77.514;2023-08-17T04:04:47;99326.58;;;20.82;52.45
80693;BME280;70055;39.436;-77.514;2023-08-17T04:07:21;99325.04;;;20.56;52.92
80693;BME280;70055;39.436;-77.514;2023-08-17T04:09:49;99325.06;;;20.77;52.93
80693;BME280;70055;39.436;-77.514;2023-08-17T04:12:17;99323.58;;;20.64;53.25
80693;BME280;70055;39.436;-77.514;2023-08-17T04:14:46;99321.90;;;21.21;52.22
80693;BME280;70055;39.436;-77.514;2023-08-17T04:17:14;99322.73;;;20.52;53.89
80693;BME280;70055;39.436;-77.514;2023-08-17T04:19:41;99317.07;;;20.35;53.10
80693;BME280;70055;39.436;-77.514;2023-08-17T04:22:09;99312.91;;;20.85;51.76
80693;BME280;70055;39.436;-77.514;2023-08-17T04:24:38;99318.38;;;21.15;51.48
80693;BME280;70055;39.436;-77.514;2023-08-17T04:27:06;99322.00;;;21.18;51.05
80693;BME280;70055;39.436;-77.514;2023-08-17T04:29:34;99319.66;;;21.03;50.70
80693;BME280;70055;39.436;-77.514;2023-08-17T04:32:03;99317.41;;;21.42;49.85
80693;BME280;70055;39.436;-77.514;2023-08-17T04:34:31;99318.10;;;21.44;49.60
80693;BME280;70055;39.436;-77.514;2023-08-17T04:36:59;99320.39;;;21.07;50.48
80693;BME280;70055;39.436;-77.514;2023-08-17T04:39:27;99316.81;;;21.48;49.67
80693;BME280;70055;39.436;-77.514;2023-08-17T04:41:54;99314.94;;;21.76;49.01
80693;BME280;70055;39.436;-77.514;2023-08-17T04:44:22;99316.75;;;20.77;52.08
80693;BME280;70055;39.436;-77.514;2023-08-17T04:46:50;99314.12;;;21.25;51.72
80693;BME280;70055;39.436;-77.514;2023-08-17T04:49:19;99312.62;;;21.18;52.55
80693;BME280;70055;39.436;-77.514;2023-08-17T04:51:47;99312.01;;;21.14;52.80
80693;BME280;70055;39.436;-77.514;2023-08-17T04:54:15;99313.58;;;21.14;53.52
80693;BME280;70055;39.436;-77.514;2023-08-17T04:56:43;99315.20;;;20.65;53.57
80693;BME280;70055;39.436;-77.514;2023-08-17T04:59:12;99316.41;;;20.14;55.46
80693;BME280;70055;39.436;-77.514;2023-08-17T05:01:40;99312.57;;;19.15;56.01
80693;BME280;70055;39.436;-77.514;2023-08-17T05:04:08;99310.69;;;20.18;55.01
80693;BME280;70055;39.436;-77.514;2023-08-17T05:06:36;99309.17;;;19.69;55.86
80693;BME280;70055;39.436;-77.514;2023-08-17T05:09:05;99301.66;;;20.60;54.17
80693;BME280;70055;39.436;-77.514;2023-08-17T05:11:33;99297.14;;;20.93;53.19
80693;BME280;70055;39.436;-77.514;2023-08-17T05:14:01;99295.97;;;21.28;53.15
80693;BME280;70055;39.436;-77.514;2023-08-17T05:16:29;99293.54;;;21.89;51.15
80693;BME280;70055;39.436;-77.514;2023-08-17T05:18:57;99295.13;;;21.52;50.91
80693;BME280;70055;39.436;-77.514;2023-08-17T05:21:25;99299.07;;;21.34;50.49
80693;BME280;70055;39.436;-77.514;2023-08-17T05:23:52;99299.67;;;21.90;49.10
80693;BME280;70055;39.436;-77.514;2023-08-17T05:26:21;99297.46;;;21.32;50.59
80693;BME280;70055;39.436;-77.514;2023-08-17T05:28:49;99293.87;;;21.90;49.37
80693;BME280;70055;39.436;-77.514;2023-08-17T05:31:17;99293.02;;;21.73;49.07
80693;BME280;70055;39.436;-77.514;2023-08-17T05:33:44;99292.69;;;21.89;48.82
80693;BME280;70055;39.436;-77.514;2023-08-17T05:36:13;99296.36;;;20.78;51.19
80693;BME280;70055;39.436;-77.514;2023-08-17T05:38:40;99292.82;;;21.81;49.53
80693;BME280;70055;39.436;-77.514;2023-08-17T05:41:08;99289.00;;;21.58;49.64
80693;BME280;70055;39.436;-77.514;2023-08-17T05:43:36;99286.31;;;21.18;53.22
80693;BME280;70055;39.436;-77.514;2023-08-17T05:46:04;99291.67;;;20.64;54.73
80693;BME280;70055;39.436;-77.514;2023-08-17T05:48:33;99287.46;;;20.71;54.04
80693;BME280;70055;39.436;-77.514;2023-08-17T05:51:01;99288.25;;;20.63;54.15
80693;BME280;70055;39.436;-77.514;2023-08-17T05:53:29;99283.54;;;21.52;52.19
80693;BME280;70055;39.436;-77.514;2023-08-17T05:55:56;99280.84;;;21.82;50.66
80693;BME280;70055;39.436;-77.514;2023-08-17T05:58:24;99283.59;;;21.67;50.11
80693;BME280;70055;39.436;-77.514;2023-08-17T06:00:53;99280.97;;;22.00;49.29
80693;BME280;70055;39.436;-77.514;2023-08-17T06:03:21;99281.15;;;22.30;48.91
80693;BME280;70055;39.436;-77.514;2023-08-17T06:05:52;99275.84;;;21.73;49.89
80693;BME280;70055;39.436;-77.514;2023-08-17T06:08:20;99275.99;;;22.11;49.17
80693;BME280;70055;39.436;-77.514;2023-08-17T06:10:48;99271.09;;;22.24;48.75
80693;BME280;70055;39.436;-77.514;2023-08-17T06:13:16;99267.62;;;22.52;48.57
80693;BME280;70055;39.436;-77.514;2023-08-17T06:15:44;99272.53;;;22.24;48.74
80693;BME280;70055;39.436;-77.514;2023-08-17T06:18:13;99270.99;;;21.70;51.52
80693;BME280;70055;39.436;-77.514;2023-08-17T06:20:41;99271.12;;;21.35;52.41
80693;BME280;70055;39.436;-77.514;2023-08-17T06:23:09;99274.42;;;21.99;51.37
80693;BME280;70055;39.436;-77.514;2023-08-17T06:25:37;99279.46;;;21.67;53.35
80693;BME280;70055;39.436;-77.514;2023-08-17T06:28:06;99278.18;;;21.25;53.70
80693;BME280;70055;39.436;-77.514;2023-08-17T06:30:34;99283.62;;;21.31;53.62
80693;BME280;70055;39.436;-77.514;2023-08-17T06:33:02;99281.59;;;22.42;52.11
80693;BME280;70055;39.436;-77.514;2023-08-17T06:35:30;99284.51;;;21.77;52.31
80693;BME280;70055;39.436;-77.514;2023-08-17T06:37:58;99284.63;;;22.50;51.30
80693;BME280;70055;39.436;-77.514;2023-08-17T06:40:27;99284.29;;;22.82;50.63
80693;BME280;70055;39.436;-77.514;2023-08-17T06:42:55;99288.61;;;22.09;51.28
80693;BME280;70055;39.436;-77.514;2023-08-17T06:45:23;99291.08;;;21.08;54.46
80693;BME280;70055;39.436;-77.514;2023-08-17T06:47:51;99285.77;;;22.01;52.69
80693;BME280;70055;39.436;-77.514;2023-08-17T06:50:18;99285.63;;;21.77;51.81
80693;BME280;70055;39.436;-77.514;2023-08-17T06:52:46;99287.45;;;21.41;52.65
80693;BME280;70055;39.436;-77.514;2023-08-17T06:55:14;99280.58;;;21.98;51.62
80693;BME280;70055;39.436;-77.514;2023-08-17T06:57:42;99282.66;;;21.59;52.55
80693;BME280;70055;39.436;-77.514;2023-08-17T07:00:10;99280.38;;;21.99;52.00
80693;BME280;70055;39.436;-77.514;2023-08-17T07:02:38;99280.21;;;20.66;54.37
80693;BME280;70055;39.436;-77.514;2023-08-17T07:05:06;99276.42;;;21.02;54.41
80693;BME280;70055;39.436;-77.514;2023-08-17T07:07:34;99277.34;;;21.52;52.80
80693;BME280;70055;39.436;-77.514;2023-08-17T07:10:02;99278.68;;;21.32;53.36
80693;BME280;70055;39.436;-77.514;2023-08-17T07:12:30;99277.85;;;20.75;54.68
80693;BME280;70055;39.436;-77.514;2023-08-17T07:14:57;99268.86;;;21.27;53.23
80693;BME280;70055;39.436;-77.514;2023-08-17T07:17:25;99266.73;;;21.55;52.80
80693;BME280;70055;39.436;-77.514;2023-08-17T07:19:53;99264.57;;;21.02;53.26
80693;BME280;70055;39.436;-77.514;2023-08-17T07:22:21;99264.23;;;21.13;52.88
80693;BME280;70055;39.436;-77.514;2023-08-17T07:24:49;99268.14;;;20.27;53.93
80693;BME280;70055;39.436;-77.514;2023-08-17T07:27:17;99260.32;;;21.17;53.31
80693;BME280;70055;39.436;-77.514;2023-08-17T07:29:45;99260.97;;;20.95;53.11
80693;BME280;70055;39.436;-77.514;2023-08-17T07:32:12;99260.92;;;20.66;52.89
80693;BME280;70055;39.436;-77.514;2023-08-17T07:34:41;99261.63;;;21.25;52.58
80693;BME280;70055;39.436;-77.514;2023-08-17T07:37:09;99259.10;;;20.76;52.47
80693;BME280;70055;39.436;-77.514;2023-08-17T07:39:37;99263.62;;;20.49;53.15
80693;BME280;70055;39.436;-77.514;2023-08-17T07:42:05;99259.95;;;19.44;56.92
80693;BME280;70055;39.436;-77.514;2023-08-17T07:44:34;99259.71;;;20.27;54.73
80693;BME280;70055;39.436;-77.514;2023-08-17T07:47:02;99255.46;;;18.82;57.28
80693;BME280;70055;39.436;-77.514;2023-08-17T07:49:29;99259.05;;;20.29;53.75
80693;BME280;70055;39.436;-77.514;2023-08-17T07:51:57;99258.01;;;20.30;53.92
80693;BME280;70055;39.436;-77.514;2023-08-17T07:54:25;99257.92;;;20.43;54.04
80693;BME280;70055;39.436;-77.514;2023-08-17T07:56:54;99256.36;;;20.11;53.96
80693;BME280;70055;39.436;-77.514;2023-08-17T07:59:22;99256.99;;;19.70;54.99
80693;BME280;70055;39.436;-77.514;2023-08-17T08:01:49;99255.42;;;19.51;55.55
80693;BME280;70055;39.436;-77.514;2023-08-17T08:04:18;99255.80;;;19.58;55.79
80693;BME280;70055;39.436;-77.514;2023-08-17T08:06:46;99257.19;;;19.93;54.63
80693;BME280;70055;39.436;-77.514;2023-08-17T08:09:14;99253.02;;;19.79;55.08
80693;BME280;70055;39.436;-77.514;2023-08-17T08:11:42;99252.40;;;19.68;54.99
80693;BME280;70055;39.436;-77.514;2023-08-17T08:14:10;99249.33;;;19.79;54.54
80693;BME280;70055;39.436;-77.514;2023-08-17T08:16:38;99242.12;;;19.12;57.28
80693;BME280;70055;39.436;-77.514;2023-08-17T08:19:06;99243.40;;;19.30;56.38
80693;BME280;70055;39.436;-77.514;2023-08-17T08:21:34;99245.83;;;19.44;56.16
80693;BME280;70055;39.436;-77.514;2023-08-17T08:24:01;99245.05;;;18.96;57.18
80693;BME280;70055;39.436;-77.514;2023-08-17T08:26:29;99250.48;;;19.25;56.82
80693;BME280;70055;39.436;-77.514;2023-08-17T08:28:57;99247.44;;;19.79;56.05
80693;BME280;70055;39.436;-77.514;2023-08-17T08:31:25;99244.58;;;19.70;55.30
80693;BME280;70055;39.436;-77.514;2023-08-17T08:33:53;99242.40;;;18.82;57.19
80693;BME280;70055;39.436;-77.514;2023-08-17T08:36:21;99244.61;;;19.24;56.37
80693;BME280;70055;39.436;-77.514;2023-08-17T08:38:49;99245.62;;;18.42;57.22
80693;BME280;70055;39.436;-77.514;2023-08-17T08:41:17;99244.94;;;19.41;55.11
80693;BME280;70055;39.436;-77.514;2023-08-17T08:43:47;99248.36;;;18.81;57.35
80693;BME280;70055;39.436;-77.514;2023-08-17T08:46:17;99251.15;;;18.41;58.11
80693;BME280;70055;39.436;-77.514;2023-08-17T08:48:46;99251.14;;;18.19;57.27
80693;BME280;70055;39.436;-77.514;2023-08-17T08:51:18;99248.18;;;18.34;56.59
80693;BME280;70055;39.436;-77.514;2023-08-17T08:53:54;99251.29;;;18.99;55.90
80693;BME280;70055;39.436;-77.514;2023-08-17T08:56:26;99250.63;;;19.53;54.37
80693;BME280;70055;39.436;-77.514;2023-08-17T08:58:54;99252.08;;;19.23;54.64
80693;BME280;70055;39.436;-77.514;2023-08-17T09:01:22;99255.29;;;19.23;54.90
80693;BME280;70055;39.436;-77.514;2023-08-17T09:03:50;99254.04;;;19.18;54.97
80693;BME280;70055;39.436;-77.514;2023-08-17T09:06:22;99252.12;;;19.31;54.21
80693;BME280;70055;39.436;-77.514;2023-08-17T09:08:51;99255.21;;;18.35;57.53
80693;BME280;70055;39.436;-77.514;2023-08-17T09:11:19;99255.69;;;18.71;56.52
80693;BME280;70055;39.436;-77.514;2023-08-17T09:13:47;99257.21;;;17.96;57.40
80693;BME280;70055;39.436;-77.514;2023-08-17T09:16:15;99252.87;;;18.76;55.62
80693;BME280;70055;39.436;-77.514;2023-08-17T09:18:44;99255.21;;;18.89;54.93
80693;BME280;70055;39.436;-77.514;2023-08-17T09:21:20;99253.72;;;19.04;54.58
80693;BME280;70055;39.436;-77.514;2023-08-17T09:23:52;99253.44;;;18.73;55.52
80693;BME280;70055;39.436;-77.514;2023-08-17T09:26:20;99252.18;;;18.90;55.03
80693;BME280;70055;39.436;-77.514;2023-08-17T09:28:48;99254.22;;;18.50;56.53
80693;BME280;70055;39.436;-77.514;2023-08-17T09:31:19;99255.70;;;18.65;55.39
80693;BME280;70055;39.436;-77.514;2023-08-17T09:33:50;99261.51;;;18.57;55.31
80693;BME280;70055;39.436;-77.514;2023-08-17T09:36:21;99259.56;;;18.39;55.86
80693;BME280;70055;39.436;-77.514;2023-08-17T09:38:50;99263.93;;;18.77;55.20
80693;BME280;70055;39.436;-77.514;2023-08-17T09:41:19;99263.05;;;18.47;55.21
80693;BME280;70055;39.436;-77.514;2023-08-17T09:43:47;99266.10;;;19.21;53.97
80693;BME280;70055;39.436;-77.514;2023-08-17T09:46:15;99267.24;;;19.15;54.15
80693;BME280;70055;39.436;-77.514;2023-08-17T09:48:44;99273.06;;;18.65;54.64
80693;BME280;70055;39.436;-77.514;2023-08-17T09:51:16;99271.28;;;18.67;56.30
80693;BME280;70055;39.436;-77.514;2023-08-17T09:53:44;99270.89;;;18.42;56.89
80693;BME280;70055;39.436;-77.514;2023-08-17T09:56:12;99269.34;;;18.33;55.74
80693;BME280;70055;39.436;-77.514;2023-08-17T09:58:41;99267.48;;;18.39;55.63
80693;BME280;70055;39.436;-77.514;2023-08-17T10:01:10;99269.15;;;18.88;55.04
80693;BME280;70055;39.436;-77.514;2023-08-17T10:03:41;99266.08;;;18.55;56.19
80693;BME280;70055;39.436;-77.514;2023-08-17T10:06:12;99270.08;;;18.60;55.78
80693;BME280;70055;39.436;-77.514;2023-08-17T10:08:43;99268.32;;;18.53;56.04
80693;BME280;70055;39.436;-77.514;2023-08-17T10:11:16;99267.05;;;17.80;58.10
80693;BME280;70055;39.436;-77.514;2023-08-17T10:13:50;99265.05;;;18.45;56.78
80693;BME280;70055;39.436;-77.514;2023-08-17T10:16:23;99259.62;;;19.01;55.44
80693;BME280;70055;39.436;-77.514;2023-08-17T10:18:58;99259.60;;;19.42;54.60
80693;BME280;70055;39.436;-77.514;2023-08-17T10:21:29;99263.49;;;18.71;56.36
80693;BME280;70055;39.436;-77.514;2023-08-17T10:24:00;99262.63;;;19.53;54.50
80693;BME280;70055;39.436;-77.514;2023-08-17T10:26:30;99267.01;;;18.79;55.95
80693;BME280;70055;39.436;-77.514;2023-08-17T10:28:59;99269.83;;;19.41;54.49
80693;BME280;70055;39.436;-77.514;2023-08-17T10:31:28;99272.86;;;19.61;53.96
80693;BME280;70055;39.436;-77.514;2023-08-17T10:33:56;99276.43;;;19.51;54.42
80693;BME280;70055;39.436;-77.514;2023-08-17T10:36:24;99277.84;;;19.32;54.38
80693;BME280;70055;39.436;-77.514;2023-08-17T10:39:18;99280.11;;;19.38;55.15
80693;BME280;70055;39.436;-77.514;2023-08-17T10:41:49;99283.66;;;18.89;56.01
80693;BME280;70055;39.436;-77.514;2023-08-17T10:44:18;99282.73;;;19.49;55.14
80693;BME280;70055;39.436;-77.514;2023-08-17T10:47:24;99283.44;;;19.86;54.00
80693;BME280;70055;39.436;-77.514;2023-08-17T10:49:57;99281.24;;;20.26;53.16
80693;BME280;70055;39.436;-77.514;2023-08-17T10:52:31;99286.73;;;20.30;52.99
80693;BME280;70055;39.436;-77.514;2023-08-17T10:55:01;99288.53;;;19.96;54.88
80693;BME280;70055;39.436;-77.514;2023-08-17T10:57:31;99288.53;;;19.90;54.52
80693;BME280;70055;39.436;-77.514;2023-08-17T11:00:18;99288.59;;;20.02;54.25
80693;BME280;70055;39.436;-77.514;2023-08-17T11:02:53;99290.26;;;19.11;55.99
80693;BME280;70055;39.436;-77.514;2023-08-17T11:05:41;99289.43;;;19.27;56.31
80693;BME280;70055;39.436;-77.514;2023-08-17T11:08:11;99289.90;;;18.69;57.65
80693;BME280;70055;39.436;-77.514;2023-08-17T11:10:39;99293.07;;;19.16;56.94
80693;BME280;70055;39.436;-77.514;2023-08-17T11:13:08;99294.75;;;19.14;56.26
80693;BME280;70055;39.436;-77.514;2023-08-17T11:15:37;99300.85;;;20.09;54.89
80693;BME280;70055;39.436;-77.514;2023-08-17T11:18:07;99300.01;;;20.03;54.15
80693;BME280;70055;39.436;-77.514;2023-08-17T11:20:37;99298.89;;;20.26;53.75
80693;BME280;70055;39.436;-77.514;2023-08-17T11:23:06;99300.00;;;20.60;53.29
80693;BME280;70055;39.436;-77.514;2023-08-17T11:25:34;99299.89;;;21.00;53.92
80693;BME280;70055;39.436;-77.514;2023-08-17T11:28:04;99298.21;;;21.18;52.80
80693;BME280;70055;39.436;-77.514;2023-08-17T11:30:33;99297.07;;;21.37;53.54
80693;BME280;70055;39.436;-77.514;2023-08-17T11:33:02;99300.07;;;21.81;52.02
80693;BME280;70055;39.436;-77.514;2023-08-17T11:35:30;99297.82;;;22.12;51.34
80693;BME280;70055;39.436;-77.514;2023-08-17T11:37:58;99297.06;;;22.21;51.85
80693;BME280;70055;39.436;-77.514;2023-08-17T11:40:27;99298.99;;;22.70;49.56
80693;BME280;70055;39.436;-77.514;2023-08-17T11:42:56;99300.59;;;22.50;50.66
80693;BME280;70055;39.436;-77.514;2023-08-17T11:45:24;99302.53;;;23.20;49.95
80693;BME280;70055;39.436;-77.514;2023-08-17T11:47:53;99307.39;;;23.15;49.29
80693;BME280;70055;39.436;-77.514;2023-08-17T11:50:24;99309.59;;;21.67;50.74
80693;BME280;70055;39.436;-77.514;2023-08-17T11:52:53;99313.55;;;21.16;52.65
80693;BME280;70055;39.436;-77.514;2023-08-17T11:55:22;99317.47;;;21.38;52.45
80693;BME280;70055;39.436;-77.514;2023-08-17T11:57:50;99315.05;;;21.54;52.11
80693;BME280;70055;39.436;-77.514;2023-08-17T12:00:20;99309.91;;;22.08;50.51
80693;BME280;70055;39.436;-77.514;2023-08-17T12:02:49;99308.90;;;23.72;46.66
80693;BME280;70055;39.436;-77.514;2023-08-17T12:05:22;99307.45;;;24.39;43.48
80693;BME280;70055;39.436;-77.514;2023-08-17T12:07:52;99312.33;;;24.01;44.59
80693;BME280;70055;39.436;-77.514;2023-08-17T12:10:21;99310.26;;;24.40;44.26
80693;BME280;70055;39.436;-77.514;2023-08-17T12:12:50;99308.50;;;24.41;44.89
80693;BME280;70055;39.436;-77.514;2023-08-17T12:15:18;99309.62;;;24.58;44.20
80693;BME280;70055;39.436;-77.514;2023-08-17T12:17:48;99307.02;;;24.54;44.23
80693;BME280;70055;39.436;-77.514;2023-08-17T12:20:20;99305.75;;;25.15;43.45
80693;BME280;70055;39.436;-77.514;2023-08-17T12:22:48;99302.85;;;24.96;43.69
80693;BME280;70055;39.436;-77.514;2023-08-17T12:25:16;99301.80;;;23.06;46.48
80693;BME280;70055;39.436;-77.514;2023-08-17T12:27:49;99299.51;;;24.00;44.76
80693;BME280;70055;39.436;-77.514;2023-08-17T12:30:31;99299.10;;;25.48;42.62
80693;BME280;70055;39.436;-77.514;2023-08-17T12:33:00;99297.40;;;25.79;41.57
80693;BME280;70055;39.436;-77.514;2023-08-17T12:35:30;99294.35;;;27.69;38.98
80693;BME280;70055;39.436;-77.514;2023-08-17T12:37:59;99290.27;;;27.80;38.37
80693;BME280;70055;39.436;-77.514;2023-08-17T12:40:28;99284.64;;;27.25;39.48
80693;BME280;70055;39.436;-77.514;2023-08-17T12:42:57;99287.94;;;24.38;43.19
80693;BME280;70055;39.436;-77.514;2023-08-17T12:45:26;99277.97;;;28.06;40.08
80693;BME280;70055;39.436;-77.514;2023-08-17T12:47:54;99282.67;;;24.58;42.36
80693;BME280;70055;39.436;-77.514;2023-08-17T12:50:23;99272.91;;;26.09;42.89